sensor_id;sensor_type;location;lat;lon;timestamp;pressure;altitude;pressure_sealevel;temperature;humidity
37832;BME280;23671;38.090;-122.570;2023-06-10T00:00:47;101459.69;;;24.01;46.09
37832;BME280;23671;38.090;-122.570;2023-06-10T00:03:14;101468.19;;;23.98;45.94
37832;BME280;23671;38.090;-122.570;2023-06-10T00:05:42;101467.13;;;23.99;45.80
37832;BME280;23671;38.090;-122.570;2023-06-10T00:08:09;101465.47;;;23.98;46.11
37832;BME280;23671;38.090;-122.570;2023-06-10T00:10:38;101467.34;;;23.98;46.07
37832;BME280;23671;38.090;-122.570;2023-06-10T00:13:05;101467.34;;;23.98;46.02
37832;BME280;23671;38.090;-122.570;2023-06-10T00:15:37;101470.22;;;23.96;46.11
37832;BME280;23671;38.090;-122.570;2023-06-10T00:18:05;101477.47;;;23.96;46.22
37832;BME280;23671;38.090;-122.570;2023-06-10T00:20:32;101471.25;;;23.95;46.32
37832;BME280;23671;38.090;-122.570;2023-06-10T00:22:59;101463.34;;;23.94;46.39
37832;BME280;23671;38.090;-122.570;2023-06-10T00:25:27;101469.59;;;23.94;46.44
37832;BME280;23671;38.090;-122.570;2023-06-10T00:27:55;101464.38;;;23.93;46.43
37832;BME280;23671;38.090;-122.570;2023-06-10T00:30:22;101477.22;;;23.91;46.53
37832;BME280;23671;38.090;-122.570;2023-06-10T00:32:49;101464.75;;;23.90;46.50
37832;BME280;23671;38.090;-122.570;2023-06-10T00:35:16;101470.34;;;23.88;46.72
37832;BME280;23671;38.090;-122.570;2023-06-10T00:37:43;101466.78;;;23.88;46.83
37832;BME280;23671;38.090;-122.570;2023-06-10T00:40:10;101474.88;;;23.88;46.90
37832;BME280;23671;38.090;-122.570;2023-06-10T00:42:37;101478.81;;;23.85;46.92
37832;BME280;23671;38.090;-122.570;2023-06-10T00:45:05;101476.47;;;23.82;46.77
37832;BME280;23671;38.090;-122.570;2023-06-10T00:47:32;101475.00;;;23.80;46.94
37832;BME280;23671;38.090;-122.570;2023-06-10T00:50:01;101472.50;;;23.78;46.95
37832;BME280;23671;38.090;-122.570;2023-06-10T00:52:29;101473.06;;;23.74;46.92
37832;BME280;23671;38.090;-122.570;2023-06-10T00:54:57;101458.94;;;23.72;46.97
37832;BME280;23671;38.090;-122.570;2023-06-10T00:57:25;101482.56;;;23.70;46.97
37832;BME280;23671;38.090;-122.570;2023-06-10T00:59:53;101473.81;;;23.68;47.12
37832;BME280;23671;38.090;-122.570;2023-06-10T01:02:21;101466.09;;;23.65;47.14
37832;BME280;23671;38.090;-122.570;2023-06-10T01:04:48;101467.31;;;23.62;47.17
37832;BME280;23671;38.090;-122.570;2023-06-10T01:07:25;101463.50;;;23.57;46.95
37832;BME280;23671;38.090;-122.570;2023-06-10T01:10:22;101467.41;;;23.54;47.03
37832;BME280;23671;38.090;-122.570;2023-06-10T01:13:02;101466.75;;;23.52;46.90
37832;BME280;23671;38.090;-122.570;2023-06-10T01:15:31;101467.97;;;23.50;46.83
37832;BME280;23671;38.090;-122.570;2023-06-10T01:18:16;101464.63;;;23.48;46.61
37832;BME280;23671;38.090;-122.570;2023-06-10T01:20:44;101468.50;;;23.45;46.63
37832;BME280;23671;38.090;-122.570;2023-06-10T01:23:13;101477.84;;;23.42;46.56
37832;BME280;23671;38.090;-122.570;2023-06-10T01:25:52;101472.16;;;23.37;46.71
37832;BME280;23671;38.090;-122.570;2023-06-10T01:28:36;101467.97;;;23.35;46.66
37832;BME280;23671;38.090;-122.570;2023-06-10T01:33:47;101466.00;;;23.29;46.67
37832;BME280;23671;38.090;-122.570;2023-06-10T01:36:17;101460.16;;;23.25;46.54
37832;BME280;23671;38.090;-122.570;2023-06-10T01:38:46;101464.88;;;23.23;46.65
37832;BME280;23671;38.090;-122.570;2023-06-10T01:41:17;101461.88;;;23.18;46.68
37832;BME280;23671;38.090;-122.570;2023-06-10T01:43:46;101464.31;;;23.13;46.64
37832;BME280;23671;38.090;-122.570;2023-06-10T01:46:15;101464.00;;;23.08;46.62
37832;BME280;23671;38.090;-122.570;2023-06-10T01:48:47;101465.44;;;23.04;46.60
37832;BME280;23671;38.090;-122.570;2023-06-10T01:51:14;101465.13;;;22.99;46.63
37832;BME280;23671;38.090;-122.570;2023-06-10T01:53:41;101467.53;;;22.94;46.45
37832;BME280;23671;38.090;-122.570;2023-06-10T01:56:08;101464.38;;;22.91;46.60
37832;BME280;23671;38.090;-122.570;2023-06-10T01:58:36;101468.47;;;22.87;46.42
37832;BME280;23671;38.090;-122.570;2023-06-10T02:01:03;101467.16;;;22.83;46.32
37832;BME280;23671;38.090;-122.570;2023-06-10T02:03:30;101451.72;;;22.77;46.36
37832;BME280;23671;38.090;-122.570;2023-06-10T02:05:57;101456.63;;;22.73;46.36
37832;BME280;23671;38.090;-122.570;2023-06-10T02:08:25;101445.56;;;22.68;46.21
37832;BME280;23671;38.090;-122.570;2023-06-10T02:10:54;101448.81;;;22.64;46.20
37832;BME280;23671;38.090;-122.570;2023-06-10T02:13:21;101451.19;;;22.58;46.07
37832;BME280;23671;38.090;-122.570;2023-06-10T02:15:48;101448.19;;;22.53;45.66
37832;BME280;23671;38.090;-122.570;2023-06-10T02:18:15;101445.19;;;22.48;45.81
37832;BME280;23671;38.090;-122.570;2023-06-10T02:20:42;101446.59;;;22.44;45.56
37832;BME280;23671;38.090;-122.570;2023-06-10T02:23:09;101447.97;;;22.40;45.56
37832;BME280;23671;38.090;-122.570;2023-06-10T02:25:37;101441.59;;;22.33;45.48
37832;BME280;23671;38.090;-122.570;2023-06-10T02:28:04;101434.09;;;22.29;45.35
37832;BME280;23671;38.090;-122.570;2023-06-10T02:30:31;101438.16;;;22.25;45.24
37832;BME280;23671;38.090;-122.570;2023-06-10T02:32:58;101436.19;;;22.19;45.15
37832;BME280;23671;38.090;-122.570;2023-06-10T02:35:25;101439.56;;;22.13;44.99
37832;BME280;23671;38.090;-122.570;2023-06-10T02:37:53;101445.47;;;22.08;44.80
37832;BME280;23671;38.090;-122.570;2023-06-10T02:40:20;101446.19;;;22.02;44.42
37832;BME280;23671;38.090;-122.570;2023-06-10T02:42:47;101444.06;;;21.98;44.40
37832;BME280;23671;38.090;-122.570;2023-06-10T02:45:14;101438.19;;;21.94;44.41
37832;BME280;23671;38.090;-122.570;2023-06-10T02:47:42;101449.66;;;21.88;44.44
37832;BME280;23671;38.090;-122.570;2023-06-10T02:50:09;101445.66;;;21.84;44.43
37832;BME280;23671;38.090;-122.570;2023-06-10T02:52:36;101447.31;;;21.77;44.40
37832;BME280;23671;38.090;-122.570;2023-06-10T02:55:04;101446.34;;;21.70;44.11
37832;BME280;23671;38.090;-122.570;2023-06-10T02:57:31;101442.34;;;21.66;44.12
37832;BME280;23671;38.090;-122.570;2023-06-10T02:59:58;101441.19;;;21.60;44.26
37832;BME280;23671;38.090;-122.570;2023-06-10T03:02:26;101443.56;;;21.55;44.54
37832;BME280;23671;38.090;-122.570;2023-06-10T03:04:56;101436.88;;;21.51;44.41
37832;BME280;23671;38.090;-122.570;2023-06-10T03:07:23;101444.97;;;21.43;44.43
37832;BME280;23671;38.090;-122.570;2023-06-10T03:09:51;101447.50;;;21.37;44.46
37832;BME280;23671;38.090;-122.570;2023-06-10T03:12:18;101450.53;;;21.34;44.26
37832;BME280;23671;38.090;-122.570;2023-06-10T03:14:45;101451.22;;;21.28;44.64
37832;BME280;23671;38.090;-122.570;2023-06-10T03:17:12;101450.91;;;21.23;44.30
37832;BME280;23671;38.090;-122.570;2023-06-10T03:19:39;101451.78;;;21.15;44.40
37832;BME280;23671;38.090;-122.570;2023-06-10T03:22:13;101442.53;;;21.10;44.72
37832;BME280;23671;38.090;-122.570;2023-06-10T03:24:41;101452.78;;;21.06;44.37
37832;BME280;23671;38.090;-122.570;2023-06-10T03:27:10;101447.38;;;20.98;44.22
37832;BME280;23671;38.090;-122.570;2023-06-10T03:29:38;101447.75;;;20.95;44.47
37832;BME280;23671;38.090;-122.570;2023-06-10T03:32:05;101445.56;;;20.91;44.30
37832;BME280;23671;38.090;-122.570;2023-06-10T03:34:33;101437.69;;;20.81;44.30
37832;BME280;23671;38.090;-122.570;2023-06-10T03:37:00;101446.41;;;20.75;44.31
37832;BME280;23671;38.090;-122.570;2023-06-10T03:39:28;101439.88;;;20.69;44.35
37832;BME280;23671;38.090;-122.570;2023-06-10T03:41:58;101451.16;;;20.65;44.17
37832;BME280;23671;38.090;-122.570;2023-06-10T03:44:25;101458.34;;;20.56;44.27
37832;BME280;23671;38.090;-122.570;2023-06-10T03:46:53;101449.13;;;20.51;44.11
37832;BME280;23671;38.090;-122.570;2023-06-10T03:49:20;101454.97;;;20.46;44.02
37832;BME280;23671;38.090;-122.570;2023-06-10T03:51:47;101451.13;;;20.41;43.96
37832;BME280;23671;38.090;-122.570;2023-06-10T03:54:14;101458.84;;;20.36;43.97
37832;BME280;23671;38.090;-122.570;2023-06-10T03:56:41;101453.97;;;20.31;43.96
37832;BME280;23671;38.090;-122.570;2023-06-10T03:59:08;101453.47;;;20.28;44.09
37832;BME280;23671;38.090;-122.570;2023-06-10T04:01:35;101457.66;;;20.22;44.01
37832;BME280;23671;38.090;-122.570;2023-06-10T04:04:04;101457.25;;;20.17;44.15
37832;BME280;23671;38.090;-122.570;2023-06-10T04:06:31;101460.47;;;20.13;44.12
37832;BME280;23671;38.090;-122.570;2023-06-10T04:08:58;101455.59;;;20.08;44.30
37832;BME280;23671;38.090;-122.570;2023-06-10T04:11:25;101456.25;;;20.02;44.33
37832;BME280;23671;38.090;-122.570;2023-06-10T04:13:52;101458.41;;;19.99;44.19
37832;BME280;23671;38.090;-122.570;2023-06-10T04:16:19;101461.44;;;19.96;44.21
37832;BME280;23671;38.090;-122.570;2023-06-10T04:18:47;101457.53;;;19.90;43.99
37832;BME280;23671;38.090;-122.570;2023-06-10T04:21:14;101451.53;;;19.88;44.23
37832;BME280;23671;38.090;-122.570;2023-06-10T04:23:41;101452.19;;;19.82;44.18
37832;BME280;23671;38.090;-122.570;2023-06-10T04:26:08;101451.63;;;19.78;44.24
37832;BME280;23671;38.090;-122.570;2023-06-10T04:28:38;101451.97;;;19.75;44.41
37832;BME280;23671;38.090;-122.570;2023-06-10T04:31:05;101464.88;;;19.72;44.36
37832;BME280;23671;38.090;-122.570;2023-06-10T04:33:32;101470.88;;;19.66;44.36
37832;BME280;23671;38.090;-122.570;2023-06-10T04:35:59;101461.47;;;19.62;44.39
37832;BME280;23671;38.090;-122.570;2023-06-10T04:38:27;101460.78;;;19.60;44.51
37832;BME280;23671;38.090;-122.570;2023-06-10T04:40:54;101459.59;;;19.54;44.50
37832;BME280;23671;38.090;-122.570;2023-06-10T04:43:21;101462.75;;;19.50;44.56
37832;BME280;23671;38.090;-122.570;2023-06-10T04:45:48;101468.44;;;19.47;44.54
37832;BME280;23671;38.090;-122.570;2023-06-10T04:48:15;101469.94;;;19.41;44.58
37832;BME280;23671;38.090;-122.570;2023-06-10T04:50:42;101474.91;;;19.36;44.60
37832;BME280;23671;38.090;-122.570;2023-06-10T04:53:09;101477.06;;;19.33;44.76
37832;BME280;23671;38.090;-122.570;2023-06-10T04:55:36;101480.91;;;19.30;44.75
37832;BME280;23671;38.090;-122.570;2023-06-10T04:58:03;101478.00;;;19.24;44.70
37832;BME280;23671;38.090;-122.570;2023-06-10T05:00:30;101480.16;;;19.20;44.64
37832;BME280;23671;38.090;-122.570;2023-06-10T05:02:57;101485.00;;;19.17;45.00
37832;BME280;23671;38.090;-122.570;2023-06-10T05:05:24;101482.63;;;19.14;44.93
37832;BME280;23671;38.090;-122.570;2023-06-10T05:07:51;101479.59;;;19.09;45.11
37832;BME280;23671;38.090;-122.570;2023-06-10T05:10:18;101484.56;;;19.03;45.15
37832;BME280;23671;38.090;-122.570;2023-06-10T05:12:46;101486.41;;;19.03;45.15
37832;BME280;23671;38.090;-122.570;2023-06-10T05:15:13;101484.19;;;18.98;45.23
37832;BME280;23671;38.090;-122.570;2023-06-10T05:17:40;101481.84;;;18.95;45.09
37832;BME280;23671;38.090;-122.570;2023-06-10T05:20:07;101471.09;;;18.87;45.18
37832;BME280;23671;38.090;-122.570;2023-06-10T05:22:35;101479.09;;;18.87;45.22
37832;BME280;23671;38.090;-122.570;2023-06-10T05:25:02;101483.09;;;18.83;45.20
37832;BME280;23671;38.090;-122.570;2023-06-10T05:27:29;101479.88;;;18.80;45.33
37832;BME280;23671;38.090;-122.570;2023-06-10T05:29:56;101481.88;;;18.78;45.42
37832;BME280;23671;38.090;-122.570;2023-06-10T05:32:23;101472.31;;;18.75;45.30
37832;BME280;23671;38.090;-122.570;2023-06-10T05:34:50;101470.94;;;18.71;45.38
37832;BME280;23671;38.090;-122.570;2023-06-10T05:37:17;101468.44;;;18.70;45.28
37832;BME280;23671;38.090;-122.570;2023-06-10T05:39:44;101459.03;;;18.66;45.58
37832;BME280;23671;38.090;-122.570;2023-06-10T05:42:11;101462.84;;;18.63;45.25
37832;BME280;23671;38.090;-122.570;2023-06-10T05:44:38;101464.16;;;18.59;45.41
37832;BME280;23671;38.090;-122.570;2023-06-10T05:47:06;101454.91;;;18.54;45.46
37832;BME280;23671;38.090;-122.570;2023-06-10T05:49:33;101453.38;;;18.51;45.46
37832;BME280;23671;38.090;-122.570;2023-06-10T05:52:00;101459.91;;;18.49;45.79
37832;BME280;23671;38.090;-122.570;2023-06-10T05:54:27;101451.03;;;18.48;45.84
37832;BME280;23671;38.090;-122.570;2023-06-10T05:56:54;101447.13;;;18.43;45.84
37832;BME280;23671;38.090;-122.570;2023-06-10T05:59:21;101451.09;;;18.39;45.69
37832;BME280;23671;38.090;-122.570;2023-06-10T06:01:49;101447.72;;;18.37;45.65
37832;BME280;23671;38.090;-122.570;2023-06-10T06:04:17;101444.69;;;18.32;45.85
37832;BME280;23671;38.090;-122.570;2023-06-10T06:06:44;101445.81;;;18.29;45.83
37832;BME280;23671;38.090;-122.570;2023-06-10T06:09:11;101444.97;;;18.29;45.93
37832;BME280;23671;38.090;-122.570;2023-06-10T06:11:39;101442.78;;;18.24;46.08
37832;BME280;23671;38.090;-122.570;2023-06-10T06:14:06;101442.22;;;18.21;45.82
37832;BME280;23671;38.090;-122.570;2023-06-10T06:16:33;101444.34;;;18.17;46.04
37832;BME280;23671;38.090;-122.570;2023-06-10T06:19:00;101437.47;;;18.14;45.86
37832;BME280;23671;38.090;-122.570;2023-06-10T06:21:27;101442.28;;;18.11;46.05
37832;BME280;23671;38.090;-122.570;2023-06-10T06:23:54;101436.41;;;18.07;46.06
37832;BME280;23671;38.090;-122.570;2023-06-10T06:26:22;101437.53;;;18.05;46.18
37832;BME280;23671;38.090;-122.570;2023-06-10T06:28:49;101443.91;;;18.04;46.01
37832;BME280;23671;38.090;-122.570;2023-06-10T06:31:16;101447.00;;;17.99;45.91
37832;BME280;23671;38.090;-122.570;2023-06-10T06:33:43;101443.81;;;17.96;46.04
37832;BME280;23671;38.090;-122.570;2023-06-10T06:36:10;101440.59;;;17.92;46.01
37832;BME280;23671;38.090;-122.570;2023-06-10T06:38:37;101437.41;;;17.89;46.19
37832;BME280;23671;38.090;-122.570;2023-06-10T06:41:04;101447.22;;;17.88;46.22
37832;BME280;23671;38.090;-122.570;2023-06-10T06:43:33;101448.53;;;17.84;46.31
37832;BME280;23671;38.090;-122.570;2023-06-10T06:46:00;101445.31;;;17.81;46.35
37832;BME280;23671;38.090;-122.570;2023-06-10T06:48:27;101448.16;;;17.79;46.35
37832;BME280;23671;38.090;-122.570;2023-06-10T06:50:54;101442.28;;;17.76;46.56
37832;BME280;23671;38.090;-122.570;2023-06-10T06:53:22;101436.50;;;17.71;46.41
37832;BME280;23671;38.090;-122.570;2023-06-10T06:55:49;101441.31;;;17.67;46.41
37832;BME280;23671;38.090;-122.570;2023-06-10T06:58:16;101429.94;;;17.65;46.35
37832;BME280;23671;38.090;-122.570;2023-06-10T07:00:43;101435.59;;;17.62;46.52
37832;BME280;23671;38.090;-122.570;2023-06-10T07:03:11;101433.03;;;17.61;46.58
37832;BME280;23671;38.090;-122.570;2023-06-10T07:05:38;101427.47;;;17.54;46.89
37832;BME280;23671;38.090;-122.570;2023-06-10T07:08:05;101415.94;;;17.54;46.43
37832;BME280;23671;38.090;-122.570;2023-06-10T07:10:32;101415.25;;;17.52;46.87
37832;BME280;23671;38.090;-122.570;2023-06-10T07:12:59;101415.41;;;17.50;46.49
37832;BME280;23671;38.090;-122.570;2023-06-10T07:15:26;101422.72;;;17.48;46.48
37832;BME280;23671;38.090;-122.570;2023-06-10T07:17:53;101422.16;;;17.45;46.84
37832;BME280;23671;38.090;-122.570;2023-06-10T07:20:22;101424.13;;;17.43;46.91
37832;BME280;23671;38.090;-122.570;2023-06-10T07:22:49;101419.91;;;17.40;46.64
37832;BME280;23671;38.090;-122.570;2023-06-10T07:25:16;101426.38;;;17.38;46.79
37832;BME280;23671;38.090;-122.570;2023-06-10T07:27:43;101424.03;;;17.35;46.78
37832;BME280;23671;38.090;-122.570;2023-06-10T07:30:10;101415.31;;;17.33;47.08
37832;BME280;23671;38.090;-122.570;2023-06-10T07:32:37;101412.81;;;17.31;46.92
37832;BME280;23671;38.090;-122.570;2023-06-10T07:35:08;101411.44;;;17.27;47.09
37832;BME280;23671;38.090;-122.570;2023-06-10T07:37:36;101413.25;;;17.26;47.05
37832;BME280;23671;38.090;-122.570;2023-06-10T07:40:04;101414.53;;;17.22;46.99
37832;BME280;23671;38.090;-122.570;2023-06-10T07:42:34;101419.16;;;17.20;47.02
37832;BME280;23671;38.090;-122.570;2023-06-10T07:45:02;101417.50;;;17.19;46.99
37832;BME280;23671;38.090;-122.570;2023-06-10T07:47:29;101413.13;;;17.18;47.00
37832;BME280;23671;38.090;-122.570;2023-06-10T07:49:56;101411.75;;;17.14;47.06
37832;BME280;23671;38.090;-122.570;2023-06-10T07:52:23;101409.38;;;17.11;46.97
37832;BME280;23671;38.090;-122.570;2023-06-10T07:54:51;101406.16;;;17.08;47.01
37832;BME280;23671;38.090;-122.570;2023-06-10T07:57:18;101410.66;;;17.07;46.92
37832;BME280;23671;38.090;-122.570;2023-06-10T07:59:46;101410.97;;;17.04;47.29
37832;BME280;23671;38.090;-122.570;2023-06-10T08:02:12;101413.91;;;17.01;47.28
37832;BME280;23671;38.090;-122.570;2023-06-10T08:04:39;101406.91;;;17.00;47.26
37832;BME280;23671;38.090;-122.570;2023-06-10T08:07:06;101405.19;;;16.99;47.10
37832;BME280;23671;38.090;-122.570;2023-06-10T08:09:34;101410.84;;;16.96;47.18
37832;BME280;23671;38.090;-122.570;2023-06-10T08:12:01;101418.16;;;16.94;47.10
37832;BME280;23671;38.090;-122.570;2023-06-10T08:14:28;101410.41;;;16.91;47.37
37832;BME280;23671;38.090;-122.570;2023-06-10T08:16:55;101399.75;;;16.91;47.43
37832;BME280;23671;38.090;-122.570;2023-06-10T08:19:22;101405.53;;;16.87;47.31
37832;BME280;23671;38.090;-122.570;2023-06-10T08:21:49;101402.03;;;16.86;47.52
37832;BME280;23671;38.090;-122.570;2023-06-10T08:24:16;101396.84;;;16.85;47.53
37832;BME280;23671;38.090;-122.570;2023-06-10T08:26:45;101395.00;;;16.85;47.28
37832;BME280;23671;38.090;-122.570;2023-06-10T08:29:13;101391.50;;;16.85;47.30
37832;BME280;23671;38.090;-122.570;2023-06-10T08:31:43;101391.78;;;16.82;47.55
37832;BME280;23671;38.090;-122.570;2023-06-10T08:34:11;101395.44;;;16.81;47.61
37832;BME280;23671;38.090;-122.570;2023-06-10T08:36:38;101399.06;;;16.80;47.61
37832;BME280;23671;38.090;-122.570;2023-06-10T08:39:05;101399.22;;;16.78;47.81
37832;BME280;23671;38.090;-122.570;2023-06-10T08:41:40;101391.38;;;16.77;47.37
37832;BME280;23671;38.090;-122.570;2023-06-10T08:44:22;101390.38;;;16.78;47.76
37832;BME280;23671;38.090;-122.570;2023-06-10T08:46:58;101384.50;;;16.74;47.74
37832;BME280;23671;38.090;-122.570;2023-06-10T08:49:27;101382.84;;;16.73;47.51
37832;BME280;23671;38.090;-122.570;2023-06-10T08:52:00;101381.13;;;16.72;47.85
37832;BME280;23671;38.090;-122.570;2023-06-10T08:54:31;101383.81;;;16.72;47.49
37832;BME280;23671;38.090;-122.570;2023-06-10T08:57:00;101376.09;;;16.69;47.73
37832;BME280;23671;38.090;-122.570;2023-06-10T08:59:28;101378.78;;;16.69;47.65
37832;BME280;23671;38.090;-122.570;2023-06-10T09:01:56;101376.25;;;16.68;47.60
37832;BME280;23671;38.090;-122.570;2023-06-10T09:04:24;101373.00;;;16.64;47.89
37832;BME280;23671;38.090;-122.570;2023-06-10T09:06:52;101371.50;;;16.62;47.84
37832;BME280;23671;38.090;-122.570;2023-06-10T09:09:19;101366.16;;;16.62;47.97
37832;BME280;23671;38.090;-122.570;2023-06-10T09:11:47;101353.66;;;16.62;47.99
37832;BME280;23671;38.090;-122.570;2023-06-10T09:14:14;101359.97;;;16.61;48.09
37832;BME280;23671;38.090;-122.570;2023-06-10T09:16:43;101351.97;;;16.61;47.85
37832;BME280;23671;38.090;-122.570;2023-06-10T09:19:11;101359.28;;;16.59;47.80
37832;BME280;23671;38.090;-122.570;2023-06-10T09:21:38;101357.63;;;16.58;47.93
37832;BME280;23671;38.090;-122.570;2023-06-10T09:24:06;101352.41;;;16.57;48.09
37832;BME280;23671;38.090;-122.570;2023-06-10T09:26:33;101355.06;;;16.57;48.22
37832;BME280;23671;38.090;-122.570;2023-06-10T09:29:07;101357.03;;;16.55;48.14
37832;BME280;23671;38.090;-122.570;2023-06-10T09:31:41;101342.88;;;16.54;48.22
37832;BME280;23671;38.090;-122.570;2023-06-10T09:34:13;101338.53;;;16.53;48.34
37832;BME280;23671;38.090;-122.570;2023-06-10T09:36:40;101345.69;;;16.53;48.44
37832;BME280;23671;38.090;-122.570;2023-06-10T09:39:18;101339.66;;;16.51;48.38
37832;BME280;23671;38.090;-122.570;2023-06-10T09:41:46;101342.47;;;16.49;48.25
37832;BME280;23671;38.090;-122.570;2023-06-10T09:44:18;101335.69;;;16.45;48.22
37832;BME280;23671;38.090;-122.570;2023-06-10T09:46:50;101338.38;;;16.45;48.54
37832;BME280;23671;38.090;-122.570;2023-06-10T09:49:21;101329.66;;;16.43;48.27
37832;BME280;23671;38.090;-122.570;2023-06-10T09:51:54;101327.00;;;16.43;48.26
37832;BME280;23671;38.090;-122.570;2023-06-10T09:54:22;101323.66;;;16.41;48.45
37832;BME280;23671;38.090;-122.570;2023-06-10T09:56:51;101327.31;;;16.40;48.65
37832;BME280;23671;38.090;-122.570;2023-06-10T09:59:30;101316.81;;;16.38;48.46
37832;BME280;23671;38.090;-122.570;2023-06-10T10:02:01;101318.75;;;16.36;48.98
37832;BME280;23671;38.090;-122.570;2023-06-10T10:04:28;101324.09;;;16.36;48.78
37832;BME280;23671;38.090;-122.570;2023-06-10T10:06:55;101307.41;;;16.34;48.69
37832;BME280;23671;38.090;-122.570;2023-06-10T10:09:22;101315.25;;;16.36;48.79
37832;BME280;23671;38.090;-122.570;2023-06-10T10:11:49;101311.19;;;16.32;48.73
37832;BME280;23671;38.090;-122.570;2023-06-10T10:14:18;101303.75;;;16.35;48.87
37832;BME280;23671;38.090;-122.570;2023-06-10T10:16:45;101305.84;;;16.32;48.86
37832;BME280;23671;38.090;-122.570;2023-06-10T10:19:26;101299.84;;;16.30;48.76
37832;BME280;23671;38.090;-122.570;2023-06-10T10:21:58;101305.00;;;16.31;49.05
37832;BME280;23671;38.090;-122.570;2023-06-10T10:24:35;101304.19;;;16.31;48.83
37832;BME280;23671;38.090;-122.570;2023-06-10T10:27:07;101310.50;;;16.30;49.21
37832;BME280;23671;38.090;-122.570;2023-06-10T10:29:39;101309.09;;;16.26;48.98
37832;BME280;23671;38.090;-122.570;2023-06-10T10:32:07;101313.47;;;16.27;49.04
37832;BME280;23671;38.090;-122.570;2023-06-10T10:35:08;101307.56;;;16.23;49.20
37832;BME280;23671;38.090;-122.570;2023-06-10T10:37:36;101299.59;;;16.23;49.36
37832;BME280;23671;38.090;-122.570;2023-06-10T10:40:04;101295.22;;;16.22;49.38
37832;BME280;23671;38.090;-122.570;2023-06-10T10:42:31;101289.19;;;16.20;49.23
37832;BME280;23671;38.090;-122.570;2023-06-10T10:44:59;101295.38;;;16.21;49.43
37832;BME280;23671;38.090;-122.570;2023-06-10T10:47:28;101295.38;;;16.21;49.43
37832;BME280;23671;38.090;-122.570;2023-06-10T10:49:56;101287.53;;;16.19;49.38
37832;BME280;23671;38.090;-122.570;2023-06-10T10:52:28;101285.81;;;16.18;49.71
37832;BME280;23671;38.090;-122.570;2023-06-10T10:55:16;101294.94;;;16.16;49.71
37832;BME280;23671;38.090;-122.570;2023-06-10T10:57:43;101300.97;;;16.18;49.56
37832;BME280;23671;38.090;-122.570;2023-06-10T11:00:10;101292.28;;;16.16;49.49
37832;BME280;23671;38.090;-122.570;2023-06-10T11:02:42;101305.91;;;16.13;49.58
37832;BME280;23671;38.090;-122.570;2023-06-10T11:05:11;101308.56;;;16.13;49.62
37832;BME280;23671;38.090;-122.570;2023-06-10T11:07:38;101306.59;;;16.15;49.37
37832;BME280;23671;38.090;-122.570;2023-06-10T11:10:09;101303.38;;;16.11;49.73
37832;BME280;23671;38.090;-122.570;2023-06-10T11:15:13;101308.97;;;16.08;49.85
37832;BME280;23671;38.090;-122.570;2023-06-10T11:18:09;101307.16;;;16.09;49.75
37832;BME280;23671;38.090;-122.570;2023-06-10T11:31:28;101296.25;;;16.02;49.62
37832;BME280;23671;38.090;-122.570;2023-06-10T11:34:03;101297.91;;;16.03;49.88
37832;BME280;23671;38.090;-122.570;2023-06-10T11:36:33;101297.91;;;16.03;49.99
37832;BME280;23671;38.090;-122.570;2023-06-10T11:39:02;101296.25;;;16.02;50.13
37832;BME280;23671;38.090;-122.570;2023-06-10T11:41:31;101285.59;;;16.02;49.95
37832;BME280;23671;38.090;-122.570;2023-06-10T11:44:18;101285.59;;;16.02;49.85
37832;BME280;23671;38.090;-122.570;2023-06-10T11:46:47;101281.25;;;16.01;49.84
37832;BME280;23671;38.090;-122.570;2023-06-10T11:49:15;101273.41;;;16.00;49.82
37832;BME280;23671;38.090;-122.570;2023-06-10T11:51:42;101263.72;;;15.99;49.97
37832;BME280;23671;38.090;-122.570;2023-06-10T11:54:15;101269.88;;;15.99;50.01
37832;BME280;23671;38.090;-122.570;2023-06-10T11:56:43;101272.69;;;15.98;50.07
37832;BME280;23671;38.090;-122.570;2023-06-10T11:59:10;101276.31;;;15.97;50.09
37832;BME280;23671;38.090;-122.570;2023-06-10T12:01:44;101270.88;;;15.98;49.94
37832;BME280;23671;38.090;-122.570;2023-06-10T12:04:14;101268.34;;;15.97;50.19
37832;BME280;23671;38.090;-122.570;2023-06-10T12:06:43;101276.47;;;15.95;50.29
37832;BME280;23671;38.090;-122.570;2023-06-10T12:09:17;101286.28;;;15.95;50.13
37832;BME280;23671;38.090;-122.570;2023-06-10T12:11:45;101288.13;;;15.94;50.10
37832;BME280;23671;38.090;-122.570;2023-06-10T12:14:12;101283.63;;;15.95;50.21
37832;BME280;23671;38.090;-122.570;2023-06-10T12:16:40;101283.63;;;15.95;50.09
37832;BME280;23671;38.090;-122.570;2023-06-10T12:19:07;101285.56;;;15.93;49.98
37832;BME280;23671;38.090;-122.570;2023-06-10T12:21:36;101286.56;;;15.92;50.00
37832;BME280;23671;38.090;-122.570;2023-06-10T12:26:44;101278.72;;;15.90;50.48
37832;BME280;23671;38.090;-122.570;2023-06-10T12:29:26;101284.06;;;15.90;50.48
37832;BME280;23671;38.090;-122.570;2023-06-10T12:32:03;101284.22;;;15.89;50.26
37832;BME280;23671;38.090;-122.570;2023-06-10T12:34:39;101272.84;;;15.87;50.39
37832;BME280;23671;38.090;-122.570;2023-06-10T12:37:11;101271.84;;;15.88;50.46
37832;BME280;23671;38.090;-122.570;2023-06-10T12:39:41;101281.53;;;15.89;50.34
37832;BME280;23671;38.090;-122.570;2023-06-10T12:42:13;101266.81;;;15.85;50.62
37832;BME280;23671;38.090;-122.570;2023-06-10T12:44:41;101271.16;;;15.86;50.31
37832;BME280;23671;38.090;-122.570;2023-06-10T12:47:09;101265.84;;;15.86;50.45